createdAt,value
2018-05-18T00:00:45.742Z,45.90
2018-05-18T00:03:14.795Z,46.20
2018-05-18T00:05:43.026Z,46.40
2018-05-18T00:08:12.162Z,46.40
2018-05-18T00:10:40.384Z,46.20
2018-05-18T00:13:08.622Z,46.00
2018-05-18T00:15:36.890Z,46.00
2018-05-18T00:18:05.137Z,45.90
2018-05-18T00:20:34.152Z,46.20
2018-05-18T00:23:03.215Z,46.60
2018-05-18T00:25:31.460Z,46.40
2018-05-18T00:27:59.702Z,46.30
2018-05-18T00:30:29.153Z,46.60
2018-05-18T00:32:57.383Z,46.40
2018-05-18T00:35:26.391Z,46.20
2018-05-18T00:37:55.514Z,46.20
2018-05-18T00:40:23.756Z,46.20
2018-05-18T00:42:52.763Z,46.00
2018-05-18T00:45:21.793Z,46.10
2018-05-18T00:47:50.020Z,45.90
2018-05-18T00:50:18.278Z,45.90
2018-05-18T00:52:46.533Z,45.90
2018-05-18T00:55:26.711Z,46.00
2018-05-18T00:57:54.993Z,46.00
2018-05-18T01:00:23.256Z,45.90
2018-05-18T01:02:51.526Z,45.90
2018-05-18T01:05:19.783Z,46.00
2018-05-18T01:07:48.045Z,46.30
2018-05-18T01:10:17.056Z,46.50
2018-05-18T01:12:46.097Z,46.10
2018-05-18T01:15:14.320Z,46.20
2018-05-18T01:17:42.565Z,46.30
2018-05-18T01:20:10.863Z,46.40
2018-05-18T01:22:39.100Z,46.20
2018-05-18T01:25:07.389Z,45.90
2018-05-18T01:27:35.674Z,46.70
2018-05-18T01:30:03.932Z,45.90
2018-05-18T01:32:32.205Z,45.90
2018-05-18T01:35:01.325Z,46.20
2018-05-18T01:37:29.584Z,46.20
2018-05-18T01:39:57.829Z,46.10
2018-05-18T01:42:26.097Z,46.00
2018-05-18T01:44:54.335Z,46.10
2018-05-18T01:47:22.724Z,46.80
2018-05-18T01:49:51.021Z,46.90
2018-05-18T01:52:19.281Z,46.90
2018-05-18T01:54:47.521Z,46.70
2018-05-18T01:57:15.790Z,46.50
2018-05-18T01:59:44.051Z,46.70
2018-05-18T02:02:12.288Z,46.60
2018-05-18T02:04:40.568Z,46.50
2018-05-18T02:07:08.830Z,46.60
2018-05-18T02:09:37.070Z,47.10
2018-05-18T02:12:06.888Z,46.50
2018-05-18T02:14:35.156Z,46.60
2018-05-18T02:17:03.397Z,46.60
2018-05-18T02:19:32.437Z,46.80
2018-05-18T02:22:00.694Z,46.60
2018-05-18T02:24:29.715Z,47.00
2018-05-18T02:26:58.000Z,47.00
2018-05-18T02:29:26.235Z,46.80
2018-05-18T02:31:55.244Z,46.50
2018-05-18T02:34:24.444Z,46.50
2018-05-18T02:36:53.462Z,46.10
2018-05-18T02:39:21.704Z,46.10
2018-05-18T02:41:49.969Z,46.30
2018-05-18T02:44:18.296Z,46.70
2018-05-18T02:46:46.547Z,46.40
2018-05-18T02:49:16.299Z,46.70
2018-05-18T02:51:44.535Z,46.60
2018-05-18T02:54:13.566Z,46.90
2018-05-18T02:56:42.589Z,47.00
2018-05-18T02:59:10.839Z,47.00
2018-05-18T03:01:39.844Z,47.10
2018-05-18T03:04:08.120Z,47.10
2018-05-18T03:06:36.362Z,47.10
2018-05-18T03:09:04.604Z,47.00
2018-05-18T03:11:32.857Z,47.20
2018-05-18T03:14:01.113Z,47.00
2018-05-18T03:16:29.348Z,46.80
2018-05-18T03:18:57.718Z,46.70
2018-05-18T03:21:25.969Z,46.70
2018-05-18T03:23:54.977Z,46.50
2018-05-18T03:26:24.057Z,46.90
2018-05-18T03:28:52.233Z,46.70
2018-05-18T03:31:21.237Z,46.30
2018-05-18T03:33:50.269Z,46.90
2018-05-18T03:36:18.655Z,46.90
2018-05-18T03:38:46.900Z,46.90
2018-05-18T03:41:15.932Z,46.30
2018-05-18T03:43:44.939Z,46.70
2018-05-18T03:46:13.200Z,46.70
2018-05-18T03:48:42.209Z,46.70
2018-05-18T03:51:10.440Z,46.70
2018-05-18T03:53:39.448Z,46.40
2018-05-18T03:56:07.733Z,46.60
2018-05-18T03:58:36.773Z,46.60
2018-05-18T04:01:05.017Z,46.80
2018-05-18T04:03:45.884Z,46.90
2018-05-18T04:06:26.825Z,46.70
2018-05-18T04:08:56.661Z,46.70
2018-05-18T04:11:25.681Z,46.80
2018-05-18T04:13:53.930Z,46.90
2018-05-18T04:16:22.188Z,46.60
2018-05-18T04:18:50.433Z,46.30
2018-05-18T04:21:18.675Z,46.30
2018-05-18T04:23:46.952Z,46.30
2018-05-18T04:26:15.203Z,46.00
2018-05-18T04:28:43.488Z,46.70
2018-05-18T04:31:11.769Z,46.90
2018-05-18T04:33:39.989Z,46.70
2018-05-18T04:36:09.005Z,46.60
2018-05-18T04:38:37.269Z,46.80
2018-05-18T04:41:06.309Z,46.80
2018-05-18T04:43:34.568Z,46.70
2018-05-18T04:46:03.571Z,47.10
2018-05-18T04:48:31.818Z,47.00
2018-05-18T04:51:00.929Z,47.30
2018-05-18T04:53:29.109Z,46.60
2018-05-18T04:55:58.124Z,47.60
2018-05-18T04:58:26.381Z,47.10
2018-05-18T05:00:55.412Z,46.80
2018-05-18T05:03:23.657Z,46.70
2018-05-18T05:05:52.712Z,46.90
2018-05-18T05:08:21.428Z,46.90
2018-05-18T05:10:49.901Z,46.70
2018-05-18T05:13:18.260Z,46.60
2018-05-18T05:15:46.445Z,46.20
2018-05-18T05:18:14.764Z,46.10
2018-05-18T05:20:43.828Z,45.80
2018-05-18T05:23:13.607Z,46.10
2018-05-18T05:25:41.879Z,45.90
2018-05-18T05:28:10.877Z,45.80
2018-05-18T05:30:39.117Z,46.10
2018-05-18T05:33:08.141Z,46.00
2018-05-18T05:35:37.149Z,45.90
2018-05-18T05:38:05.431Z,45.90
2018-05-18T05:40:33.998Z,45.80
2018-05-18T05:43:02.276Z,46.00
2018-05-18T05:45:30.552Z,46.10
2018-05-18T05:47:58.790Z,45.70
2018-05-18T05:50:27.219Z,45.70
2018-05-18T05:52:55.556Z,45.90
2018-05-18T05:55:23.753Z,45.60
2018-05-18T05:57:52.017Z,45.50
2018-05-18T06:00:20.310Z,45.30
2018-05-18T06:02:48.592Z,44.90
2018-05-18T06:05:16.952Z,44.90
2018-05-18T06:07:45.165Z,44.90
2018-05-18T06:10:14.266Z,44.90
2018-05-18T06:12:44.033Z,46.50
2018-05-18T06:15:13.052Z,47.10
2018-05-18T06:17:41.315Z,47.30
2018-05-18T06:20:09.584Z,45.60
2018-05-18T06:22:37.826Z,44.90
2018-05-18T06:25:07.567Z,44.20
2018-05-18T06:27:36.600Z,44.40
2018-05-18T06:30:04.835Z,44.00
2018-05-18T06:32:33.117Z,44.10
2018-05-18T06:35:03.187Z,43.70
2018-05-18T06:37:31.321Z,43.60
2018-05-18T06:40:00.331Z,43.80
2018-05-18T06:42:28.597Z,43.90
2018-05-18T06:44:57.033Z,43.90
2018-05-18T06:47:25.372Z,43.90
2018-05-18T06:49:53.653Z,43.70
2018-05-18T06:52:21.991Z,43.70
2018-05-18T06:54:50.323Z,43.80
2018-05-18T06:57:18.668Z,43.80
2018-05-18T06:59:47.301Z,44.00
2018-05-18T07:02:16.040Z,43.50
2018-05-18T07:04:45.469Z,43.30
2018-05-18T07:07:14.599Z,43.20
2018-05-18T07:09:43.581Z,43.20
2018-05-18T07:12:12.609Z,43.40
2018-05-18T07:14:40.928Z,43.50
2018-05-18T07:17:09.177Z,43.40
2018-05-18T07:19:37.573Z,43.10
2018-05-18T07:22:06.653Z,42.70
2018-05-18T07:24:35.573Z,43.20
2018-05-18T07:27:03.873Z,43.30
2018-05-18T07:29:33.005Z,42.90
2018-05-18T07:32:01.172Z,42.80
2018-05-18T07:34:30.234Z,42.50
2018-05-18T07:36:58.492Z,42.40
2018-05-18T07:39:26.737Z,42.30
2018-05-18T07:41:55.788Z,41.90
2018-05-18T07:44:24.039Z,41.80
2018-05-18T07:46:52.405Z,42.50
2018-05-18T07:49:20.661Z,42.20
2018-05-18T07:51:48.931Z,41.10
2018-05-18T07:54:17.176Z,41.10
2018-05-18T07:56:45.420Z,41.40
2018-05-18T07:59:14.472Z,41.70
2018-05-18T08:01:42.743Z,42.00
2018-05-18T08:04:11.020Z,41.60
2018-05-18T08:06:39.304Z,41.50
2018-05-18T08:09:07.585Z,41.40
2018-05-18T08:11:35.857Z,41.50
2018-05-18T08:14:04.146Z,41.80
2018-05-18T08:16:32.391Z,44.60
2018-05-18T08:19:00.675Z,43.50
2018-05-18T08:21:28.980Z,43.20
2018-05-18T08:23:58.188Z,43.90
2018-05-18T08:26:26.417Z,43.20
2018-05-18T08:29:07.310Z,43.30
2018-05-18T08:31:35.542Z,42.70
2018-05-18T08:34:03.789Z,42.40
2018-05-18T08:36:32.063Z,42.60
2018-05-18T08:39:00.296Z,43.70
2018-05-18T08:41:28.572Z,43.50
2018-05-18T08:43:56.826Z,43.70
2018-05-18T08:46:25.074Z,43.00
2018-05-18T08:48:53.316Z,43.70
2018-05-18T08:51:22.331Z,43.70
2018-05-18T08:53:50.597Z,43.60
2018-05-18T08:56:18.858Z,42.40
2018-05-18T08:58:48.597Z,41.80
2018-05-18T09:01:17.613Z,42.10
2018-05-18T09:03:45.856Z,42.30
2018-05-18T09:06:14.115Z,41.70
2018-05-18T09:08:42.360Z,42.40
2018-05-18T09:11:10.627Z,42.20
2018-05-18T09:13:39.641Z,43.70
2018-05-18T09:16:07.883Z,43.60
2018-05-18T09:18:36.147Z,42.70
2018-05-18T09:21:04.424Z,43.10
2018-05-18T09:23:32.690Z,41.30
2018-05-18T09:26:00.949Z,40.00
2018-05-18T09:28:29.956Z,40.50
2018-05-18T09:30:58.226Z,40.20
2018-05-18T09:33:26.472Z,40.20
2018-05-18T09:35:55.482Z,39.60
2018-05-18T09:38:24.499Z,39.50
2018-05-18T09:40:52.772Z,39.60
2018-05-18T09:43:21.006Z,39.40
2018-05-18T09:45:49.273Z,39.20
2018-05-18T09:48:17.536Z,38.60
2018-05-18T09:50:45.801Z,39.20
2018-05-18T09:53:14.039Z,38.90
2018-05-18T09:55:42.281Z,38.80
2018-05-18T09:58:10.554Z,38.40
2018-05-18T10:00:38.871Z,38.70
2018-05-18T10:03:07.053Z,38.50
2018-05-18T10:05:35.329Z,38.00
2018-05-18T10:08:03.586Z,38.50
2018-05-18T10:10:31.830Z,38.10
2018-05-18T10:13:00.137Z,38.10
2018-05-18T10:15:28.595Z,38.00
2018-05-18T10:17:57.626Z,36.70
2018-05-18T10:20:25.913Z,36.70
2018-05-18T10:22:54.186Z,36.50
2018-05-18T10:25:26.342Z,36.80
2018-05-18T10:27:54.622Z,36.70
2018-05-18T10:30:29.763Z,37.00
2018-05-18T10:32:58.019Z,37.10
2018-05-18T10:35:26.446Z,38.00
2018-05-18T10:37:54.681Z,37.70
2018-05-18T10:40:23.207Z,37.40
2018-05-18T10:42:53.036Z,38.10
2018-05-18T10:45:21.653Z,37.50
2018-05-18T10:47:50.068Z,37.20
2018-05-18T10:50:19.165Z,37.20
2018-05-18T10:52:48.432Z,37.40
2018-05-18T10:55:16.741Z,36.70
2018-05-18T10:57:45.789Z,36.10
2018-05-18T11:00:14.443Z,36.00
2018-05-18T11:02:42.701Z,36.00
2018-05-18T11:05:11.726Z,35.90
2018-05-18T11:07:40.007Z,35.90
2018-05-18T11:10:08.251Z,36.10
2018-05-18T11:12:37.275Z,36.10
2018-05-18T11:15:05.563Z,35.90
2018-05-18T11:17:33.945Z,36.20
2018-05-18T11:20:02.228Z,36.60
2018-05-18T11:22:30.509Z,36.50
2018-05-18T11:24:58.759Z,36.30
2018-05-18T11:27:28.852Z,36.30
2018-05-18T11:29:57.141Z,36.10
2018-05-18T11:32:25.589Z,35.60
2018-05-18T11:34:54.052Z,35.80
2018-05-18T11:37:22.388Z,35.60
2018-05-18T11:39:50.636Z,35.60
2018-05-18T11:42:19.900Z,35.30
2018-05-18T11:44:48.920Z,35.20
2018-05-18T11:47:18.475Z,35.10
2018-05-18T11:49:47.905Z,34.70
2018-05-18T11:52:17.108Z,35.40
2018-05-18T11:54:45.503Z,35.40
2018-05-18T11:57:14.947Z,35.50
2018-05-18T11:59:43.192Z,35.60
2018-05-18T12:02:11.443Z,35.70
2018-05-18T12:04:40.483Z,35.60
2018-05-18T12:07:09.540Z,35.60
2018-05-18T12:09:37.779Z,35.50
2018-05-18T12:12:06.055Z,35.40
2018-05-18T12:14:34.296Z,34.90
2018-05-18T12:17:03.359Z,35.00
2018-05-18T12:19:31.764Z,35.10
2018-05-18T12:22:01.527Z,34.40
2018-05-18T12:24:29.782Z,34.30
2018-05-18T12:26:58.830Z,33.80
2018-05-18T12:29:27.524Z,33.90
2018-05-18T12:31:55.784Z,33.40
2018-05-18T12:34:24.064Z,33.50
2018-05-18T12:36:52.343Z,33.90
2018-05-18T12:39:20.612Z,33.40
2018-05-18T12:41:48.866Z,33.20
2018-05-18T12:44:17.908Z,33.20
2018-05-18T12:46:47.557Z,33.30
2018-05-18T12:49:15.823Z,33.50
2018-05-18T12:51:44.099Z,33.30
2018-05-18T12:54:12.345Z,33.10
2018-05-18T12:56:40.637Z,33.20
2018-05-18T12:59:08.890Z,33.20
2018-05-18T13:01:37.167Z,33.20
2018-05-18T13:04:06.153Z,33.70
2018-05-18T13:06:35.213Z,33.80
2018-05-18T13:09:03.461Z,33.60
2018-05-18T13:11:32.608Z,33.20
2018-05-18T13:14:02.038Z,33.60
2018-05-18T13:16:31.073Z,32.30
2018-05-18T13:18:59.372Z,32.60
2018-05-18T13:21:27.596Z,33.20
2018-05-18T13:23:56.652Z,33.50
2018-05-18T13:26:24.914Z,33.30
2018-05-18T13:28:53.182Z,33.00
2018-05-18T13:31:21.430Z,33.10
2018-05-18T13:33:50.461Z,32.90
2018-05-18T13:36:18.701Z,32.90
2018-05-18T13:38:47.060Z,32.10
2018-05-18T13:41:16.000Z,32.20
2018-05-18T13:43:45.035Z,32.50
2018-05-18T13:46:13.280Z,32.40
2018-05-18T13:48:42.313Z,32.40
2018-05-18T13:51:10.586Z,32.10
2018-05-18T13:53:38.842Z,32.30
2018-05-18T13:56:07.874Z,32.40
2018-05-18T13:58:36.119Z,32.50
2018-05-18T14:01:05.154Z,32.10
2018-05-18T14:03:33.393Z,32.20
2018-05-18T14:06:02.432Z,32.20
2018-05-18T14:08:30.736Z,32.30
2018-05-18T14:10:59.046Z,32.10
2018-05-18T14:13:27.271Z,32.40
2018-05-18T14:15:55.528Z,32.40
2018-05-18T14:18:24.544Z,32.20
2018-05-18T14:20:52.877Z,32.40
2018-05-18T14:23:21.827Z,32.10
2018-05-18T14:25:50.085Z,32.30
2018-05-18T14:28:19.121Z,32.70
2018-05-18T14:30:47.418Z,32.40
2018-05-18T14:33:15.664Z,32.20
2018-05-18T14:35:43.963Z,32.20
2018-05-18T14:38:12.252Z,32.10
2018-05-18T14:40:40.483Z,31.30
2018-05-18T14:43:08.733Z,31.60
2018-05-18T14:45:37.021Z,31.30
2018-05-18T14:48:06.026Z,31.60
2018-05-18T14:50:35.066Z,32.20
2018-05-18T14:53:03.441Z,32.40
2018-05-18T14:55:31.713Z,31.80
2018-05-18T14:57:59.948Z,32.10
2018-05-18T15:00:29.001Z,32.90
2018-05-18T15:02:57.325Z,32.00
2018-05-18T15:05:25.600Z,32.00
2018-05-18T15:07:53.847Z,32.10
2018-05-18T15:10:22.728Z,32.60
2018-05-18T15:12:50.974Z,32.30
2018-05-18T15:15:20.008Z,32.20
2018-05-18T15:17:48.281Z,32.20
2018-05-18T15:20:16.537Z,32.30
2018-05-18T15:22:45.549Z,31.40
2018-05-18T15:25:13.826Z,31.30
2018-05-18T15:27:42.857Z,31.40
2018-05-18T15:30:11.168Z,31.20
2018-05-18T15:32:39.407Z,30.90
2018-05-18T15:35:07.685Z,31.30
2018-05-18T15:37:35.948Z,30.80
2018-05-18T15:40:04.200Z,30.20
2018-05-18T15:42:32.572Z,30.20
2018-05-18T15:45:00.833Z,30.50
2018-05-18T15:47:29.138Z,30.90
2018-05-18T15:49:57.411Z,30.40
2018-05-18T15:52:25.655Z,31.10
2018-05-18T15:54:53.946Z,31.30
2018-05-18T15:57:22.219Z,31.50
2018-05-18T15:59:50.501Z,31.80
2018-05-18T16:02:18.748Z,31.90
2018-05-18T16:04:47.247Z,32.10
2018-05-18T16:07:15.753Z,32.00
2018-05-18T16:09:44.013Z,31.70
2018-05-18T16:12:12.260Z,31.90
2018-05-18T16:14:41.322Z,32.30
2018-05-18T16:17:09.585Z,32.00
2018-05-18T16:19:38.783Z,32.30
2018-05-18T16:22:07.060Z,32.30
2018-05-18T16:24:35.319Z,32.40
2018-05-18T16:27:04.348Z,33.00
2018-05-18T16:29:32.614Z,33.00
2018-05-18T16:32:00.897Z,32.80
2018-05-18T16:34:29.910Z,32.60
2018-05-18T16:36:58.509Z,32.70
2018-05-18T16:39:26.772Z,32.50
2018-05-18T16:41:55.020Z,32.40
2018-05-18T16:44:25.065Z,33.20
2018-05-18T16:46:53.376Z,33.50
2018-05-18T16:49:21.653Z,33.50
2018-05-18T16:51:49.933Z,33.30
2018-05-18T16:54:18.216Z,33.60
2018-05-18T16:56:46.472Z,33.70
2018-05-18T16:59:14.755Z,33.40
2018-05-18T17:01:43.048Z,33.70
2018-05-18T17:04:11.306Z,33.50
2018-05-18T17:06:39.857Z,33.60
2018-05-18T17:09:08.838Z,33.50
2018-05-18T17:11:37.067Z,33.60
2018-05-18T17:14:05.344Z,33.70
2018-05-18T17:16:33.590Z,33.80
2018-05-18T17:19:02.144Z,34.00
2018-05-18T17:21:30.397Z,33.60
2018-05-18T17:23:59.445Z,34.40
2018-05-18T17:26:27.726Z,34.50
2018-05-18T17:28:55.989Z,34.20
2018-05-18T17:31:24.321Z,34.10
2018-05-18T17:33:52.602Z,34.30
2018-05-18T17:36:21.619Z,34.70
2018-05-18T17:38:49.914Z,34.70
2018-05-18T17:41:18.177Z,35.00
2018-05-18T17:43:46.460Z,35.20
2018-05-18T17:46:15.909Z,35.60
2018-05-18T17:48:44.185Z,35.60
2018-05-18T17:51:12.420Z,35.80
2018-05-18T17:53:40.708Z,36.20
2018-05-18T17:56:08.980Z,36.40
2018-05-18T17:58:38.005Z,36.10
2018-05-18T18:01:06.265Z,36.10
2018-05-18T18:03:35.395Z,36.00
2018-05-18T18:06:03.975Z,36.00
2018-05-18T18:08:32.208Z,36.00
2018-05-18T18:11:00.440Z,36.00
2018-05-18T18:13:28.729Z,35.80
2018-05-18T18:15:56.963Z,35.90
2018-05-18T18:18:25.999Z,35.90
2018-05-18T18:20:55.189Z,36.00
2018-05-18T18:23:23.473Z,35.90
2018-05-18T18:25:52.660Z,36.70
2018-05-18T18:28:21.680Z,37.20
2018-05-18T18:30:50.169Z,37.20
2018-05-18T18:33:18.415Z,37.30
2018-05-18T18:35:46.685Z,37.50
2018-05-18T18:38:15.748Z,37.50
2018-05-18T18:40:44.025Z,37.70
2018-05-18T18:43:12.291Z,37.60
2018-05-18T18:45:40.553Z,38.00
2018-05-18T18:48:08.815Z,38.00
2018-05-18T18:50:37.064Z,38.00
2018-05-18T18:53:05.324Z,38.10
2018-05-18T18:55:33.593Z,38.10
2018-05-18T18:58:01.836Z,38.00
2018-05-18T19:00:30.140Z,38.40
2018-05-18T19:02:58.451Z,38.30
2018-05-18T19:05:27.606Z,38.30
2018-05-18T19:07:56.735Z,38.10
2018-05-18T19:10:24.924Z,38.40
2018-05-18T19:12:53.188Z,38.20
2018-05-18T19:15:21.527Z,38.30
2018-05-18T19:17:49.785Z,38.20
2018-05-18T19:20:18.019Z,38.50
2018-05-18T19:22:46.285Z,38.80
2018-05-18T19:25:14.528Z,38.70
2018-05-18T19:27:42.811Z,38.70
2018-05-18T19:30:11.047Z,38.70
2018-05-18T19:32:39.315Z,38.90
2018-05-18T19:35:07.565Z,38.90
2018-05-18T19:37:35.821Z,39.00
2018-05-18T19:40:04.059Z,39.40
2018-05-18T19:42:32.320Z,39.40
2018-05-18T19:45:00.567Z,39.70
2018-05-18T19:47:28.842Z,39.50
2018-05-18T19:49:57.098Z,39.80
2018-05-18T19:52:25.334Z,39.50
2018-05-18T19:54:54.354Z,40.00
2018-05-18T19:57:23.379Z,39.30
2018-05-18T20:02:35.054Z,39.60
2018-05-18T20:05:03.292Z,39.50
2018-05-18T20:07:31.556Z,39.30
2018-05-18T20:09:59.818Z,39.50
2018-05-18T20:12:28.086Z,39.60
2018-05-18T20:14:56.324Z,39.40
2018-05-18T20:17:25.373Z,39.10
2018-05-18T20:19:53.613Z,39.10
2018-05-18T20:22:22.635Z,39.60
2018-05-18T20:24:50.874Z,39.70
2018-05-18T20:27:19.147Z,39.60
2018-05-18T20:29:47.410Z,39.60
2018-05-18T20:32:15.681Z,39.40
2018-05-18T20:34:43.933Z,39.20
2018-05-18T20:37:12.211Z,39.60
2018-05-18T20:39:40.483Z,39.80
2018-05-18T20:42:08.787Z,39.70
2018-05-18T20:44:37.055Z,39.50
2018-05-18T20:47:05.372Z,39.40
2018-05-18T20:49:33.894Z,39.40
2018-05-18T20:52:03.140Z,39.10
2018-05-18T20:54:31.404Z,39.10
2018-05-18T20:56:59.652Z,39.40
2018-05-18T20:59:28.671Z,40.10
2018-05-18T21:01:57.694Z,39.60
2018-05-18T21:04:25.965Z,39.50
2018-05-18T21:06:54.214Z,39.70
2018-05-18T21:09:23.274Z,41.10
2018-05-18T21:11:51.550Z,40.40
2018-05-18T21:14:19.800Z,40.20
2018-05-18T21:16:48.113Z,40.30
2018-05-18T21:19:16.350Z,40.50
2018-05-18T21:21:44.636Z,40.50
2018-05-18T21:24:12.914Z,40.80
2018-05-18T21:26:41.183Z,40.80
2018-05-18T21:29:10.217Z,41.10
2018-05-18T21:31:38.509Z,41.10
2018-05-18T21:34:06.782Z,41.40
2018-05-18T21:36:35.029Z,41.30
2018-05-18T21:39:04.061Z,41.70
2018-05-18T21:41:32.305Z,41.50
2018-05-18T21:44:01.343Z,41.60
2018-05-18T21:46:29.570Z,41.70
2018-05-18T21:48:58.601Z,41.70
2018-05-18T21:51:26.840Z,41.90
2018-05-18T21:53:55.857Z,43.00
2018-05-18T21:56:24.871Z,42.40
2018-05-18T21:58:53.117Z,42.20
2018-05-18T22:01:21.376Z,42.30
2018-05-18T22:03:49.640Z,42.60
2018-05-18T22:06:18.111Z,42.60
2018-05-18T22:08:46.364Z,42.60
2018-05-18T22:11:15.373Z,42.40
2018-05-18T22:13:43.645Z,42.40
2018-05-18T22:16:11.882Z,42.30
2018-05-18T22:18:40.144Z,42.40
2018-05-18T22:21:08.396Z,42.60
2018-05-18T22:23:36.701Z,42.60
2018-05-18T22:26:04.972Z,42.80
2018-05-18T22:28:33.216Z,42.80
2018-05-18T22:31:02.242Z,43.10
2018-05-18T22:33:30.506Z,42.90
2018-05-18T22:35:58.747Z,43.00
2018-05-18T22:38:27.022Z,43.00
2018-05-18T22:40:55.281Z,42.90
2018-05-18T22:43:23.529Z,42.90
2018-05-18T22:45:51.797Z,42.60
2018-05-18T22:48:20.917Z,42.40
2018-05-18T22:50:49.222Z,42.60
2018-05-18T22:53:17.479Z,42.70
2018-05-18T22:55:45.754Z,42.90
2018-05-18T22:58:14.035Z,42.60
2018-05-18T23:00:43.044Z,42.90
2018-05-18T23:03:11.307Z,42.80
2018-05-18T23:05:39.611Z,43.10
2018-05-18T23:08:07.847Z,42.80
2018-05-18T23:10:36.874Z,43.00
2018-05-18T23:13:05.126Z,43.30
2018-05-18T23:15:34.429Z,42.90
2018-05-18T23:18:04.171Z,42.60
2018-05-18T23:20:32.543Z,42.70
2018-05-18T23:23:01.563Z,42.40
2018-05-18T23:25:29.824Z,42.30
2018-05-18T23:27:58.854Z,42.90
2018-05-18T23:30:27.085Z,43.00
2018-05-18T23:32:56.111Z,42.70
2018-05-18T23:35:24.366Z,43.10
2018-05-18T23:37:53.385Z,42.50
2018-05-18T23:40:21.634Z,42.50
2018-05-18T23:42:50.667Z,42.50
2018-05-18T23:45:18.914Z,42.50
2018-05-18T23:47:47.180Z,42.30
2018-05-18T23:50:15.528Z,42.40
2018-05-18T23:52:43.779Z,42.50
2018-05-18T23:55:12.026Z,42.90
2018-05-18T23:57:40.288Z,42.80
